sensor_id;sensor_type;location;lat;lon;timestamp;P1;durP1;ratioP1;P2;durP2;ratioP2
21392;SDS011;10857;52.228;21.026;2022-07-06T00:00:54;11.10;;;9.95;;
21392;SDS011;10857;52.228;21.026;2022-07-06T00:03:22;14.13;;;10.80;;
21392;SDS011;10857;52.228;21.026;2022-07-06T00:05:49;12.38;;;10.65;;
21392;SDS011;10857;52.228;21.026;2022-07-06T00:08:17;12.60;;;11.20;;
21392;SDS011;10857;52.228;21.026;2022-07-06T00:10:46;12.18;;;10.98;;
21392;SDS011;10857;52.228;21.026;2022-07-06T00:13:15;13.20;;;11.90;;
21392;SDS011;10857;52.228;21.026;2022-07-06T00:15:44;14.68;;;11.48;;
21392;SDS011;10857;52.228;21.026;2022-07-06T00:18:16;12.93;;;11.60;;
21392;SDS011;10857;52.228;21.026;2022-07-06T00:20:56;12.18;;;10.85;;
21392;SDS011;10857;52.228;21.026;2022-07-06T00:23:27;13.77;;;11.35;;
21392;SDS011;10857;52.228;21.026;2022-07-06T00:25:58;13.05;;;10.73;;
21392;SDS011;10857;52.228;21.026;2022-07-06T00:28:25;11.35;;;10.18;;
21392;SDS011;10857;52.228;21.026;2022-07-06T00:30:52;12.20;;;10.73;;
21392;SDS011;10857;52.228;21.026;2022-07-06T00:33:20;14.20;;;11.10;;
21392;SDS011;10857;52.228;21.026;2022-07-06T00:35:49;11.77;;;10.60;;
21392;SDS011;10857;52.228;21.026;2022-07-06T00:38:16;10.57;;;9.57;;
21392;SDS011;10857;52.228;21.026;2022-07-06T00:40:43;10.45;;;9.23;;
21392;SDS011;10857;52.228;21.026;2022-07-06T00:43:12;10.90;;;8.88;;
21392;SDS011;10857;52.228;21.026;2022-07-06T00:45:43;10.68;;;9.20;;
21392;SDS011;10857;52.228;21.026;2022-07-06T00:48:11;11.07;;;9.50;;
21392;SDS011;10857;52.228;21.026;2022-07-06T00:50:39;9.25;;;8.25;;
21392;SDS011;10857;52.228;21.026;2022-07-06T00:53:08;9.80;;;8.80;;
21392;SDS011;10857;52.228;21.026;2022-07-06T00:55:37;10.10;;;8.80;;
21392;SDS011;10857;52.228;21.026;2022-07-06T00:58:06;11.13;;;8.10;;
21392;SDS011;10857;52.228;21.026;2022-07-06T01:00:36;11.85;;;8.85;;
21392;SDS011;10857;52.228;21.026;2022-07-06T01:03:03;10.75;;;8.65;;
21392;SDS011;10857;52.228;21.026;2022-07-06T01:05:31;13.52;;;8.88;;
21392;SDS011;10857;52.228;21.026;2022-07-06T01:07:58;9.68;;;8.68;;
21392;SDS011;10857;52.228;21.026;2022-07-06T01:10:27;9.95;;;8.07;;
21392;SDS011;10857;52.228;21.026;2022-07-06T01:12:55;11.90;;;8.68;;
21392;SDS011;10857;52.228;21.026;2022-07-06T01:15:24;10.43;;;8.50;;
21392;SDS011;10857;52.228;21.026;2022-07-06T01:17:53;11.27;;;7.63;;
21392;SDS011;10857;52.228;21.026;2022-07-06T01:20:27;9.10;;;7.03;;
21392;SDS011;10857;52.228;21.026;2022-07-06T01:22:58;8.48;;;6.88;;
21392;SDS011;10857;52.228;21.026;2022-07-06T01:25:26;9.05;;;6.72;;
21392;SDS011;10857;52.228;21.026;2022-07-06T01:27:53;8.75;;;6.97;;
21392;SDS011;10857;52.228;21.026;2022-07-06T01:30:24;8.30;;;7.50;;
21392;SDS011;10857;52.228;21.026;2022-07-06T01:32:52;9.52;;;7.22;;
21392;SDS011;10857;52.228;21.026;2022-07-06T01:35:40;8.80;;;7.82;;
21392;SDS011;10857;52.228;21.026;2022-07-06T01:38:07;9.77;;;7.43;;
21392;SDS011;10857;52.228;21.026;2022-07-06T01:40:34;8.23;;;7.38;;
21392;SDS011;10857;52.228;21.026;2022-07-06T01:43:01;8.13;;;6.93;;
21392;SDS011;10857;52.228;21.026;2022-07-06T01:45:31;8.80;;;7.90;;
21392;SDS011;10857;52.228;21.026;2022-07-06T01:47:59;10.45;;;7.63;;
21392;SDS011;10857;52.228;21.026;2022-07-06T01:50:26;11.20;;;7.47;;
21392;SDS011;10857;52.228;21.026;2022-07-06T01:52:55;8.70;;;7.20;;
21392;SDS011;10857;52.228;21.026;2022-07-06T01:55:22;7.57;;;6.75;;
21392;SDS011;10857;52.228;21.026;2022-07-06T01:57:49;9.52;;;7.00;;
21392;SDS011;10857;52.228;21.026;2022-07-06T02:00:16;7.65;;;6.63;;
21392;SDS011;10857;52.228;21.026;2022-07-06T02:02:47;9.43;;;7.80;;
21392;SDS011;10857;52.228;21.026;2022-07-06T02:05:14;10.10;;;8.18;;
21392;SDS011;10857;52.228;21.026;2022-07-06T02:07:42;8.48;;;7.55;;
21392;SDS011;10857;52.228;21.026;2022-07-06T02:10:11;8.32;;;7.47;;
21392;SDS011;10857;52.228;21.026;2022-07-06T02:12:38;11.02;;;7.55;;
21392;SDS011;10857;52.228;21.026;2022-07-06T02:15:05;8.32;;;7.40;;
21392;SDS011;10857;52.228;21.026;2022-07-06T02:17:33;9.15;;;7.03;;
21392;SDS011;10857;52.228;21.026;2022-07-06T02:20:01;10.52;;;7.03;;
21392;SDS011;10857;52.228;21.026;2022-07-06T02:22:30;8.32;;;6.57;;
21392;SDS011;10857;52.228;21.026;2022-07-06T02:24:58;8.68;;;6.75;;
21392;SDS011;10857;52.228;21.026;2022-07-06T02:27:25;7.70;;;6.78;;
21392;SDS011;10857;52.228;21.026;2022-07-06T02:29:52;9.23;;;6.50;;
21392;SDS011;10857;52.228;21.026;2022-07-06T02:32:19;8.85;;;7.57;;
21392;SDS011;10857;52.228;21.026;2022-07-06T02:34:46;7.40;;;6.70;;
21392;SDS011;10857;52.228;21.026;2022-07-06T02:37:13;7.75;;;6.90;;
21392;SDS011;10857;52.228;21.026;2022-07-06T02:39:41;8.73;;;6.38;;
21392;SDS011;10857;52.228;21.026;2022-07-06T02:42:08;6.50;;;5.90;;
21392;SDS011;10857;52.228;21.026;2022-07-06T02:44:36;6.78;;;6.13;;
21392;SDS011;10857;52.228;21.026;2022-07-06T02:47:04;7.38;;;6.05;;
21392;SDS011;10857;52.228;21.026;2022-07-06T02:49:31;7.40;;;6.00;;
21392;SDS011;10857;52.228;21.026;2022-07-06T02:52:00;8.18;;;5.97;;
21392;SDS011;10857;52.228;21.026;2022-07-06T02:54:36;7.80;;;6.32;;
21392;SDS011;10857;52.228;21.026;2022-07-06T02:57:07;6.78;;;5.43;;
21392;SDS011;10857;52.228;21.026;2022-07-06T02:59:36;7.18;;;5.10;;
21392;SDS011;10857;52.228;21.026;2022-07-06T03:02:06;7.97;;;5.00;;
21392;SDS011;10857;52.228;21.026;2022-07-06T03:04:36;7.22;;;5.70;;
21392;SDS011;10857;52.228;21.026;2022-07-06T03:07:03;6.90;;;5.28;;
21392;SDS011;10857;52.228;21.026;2022-07-06T03:09:32;8.02;;;5.35;;
21392;SDS011;10857;52.228;21.026;2022-07-06T03:11:59;6.15;;;4.80;;
21392;SDS011;10857;52.228;21.026;2022-07-06T03:14:29;5.55;;;4.70;;
21392;SDS011;10857;52.228;21.026;2022-07-06T03:16:57;6.13;;;5.15;;
21392;SDS011;10857;52.228;21.026;2022-07-06T03:19:25;7.40;;;5.35;;
21392;SDS011;10857;52.228;21.026;2022-07-06T03:22:10;6.65;;;5.38;;
21392;SDS011;10857;52.228;21.026;2022-07-06T03:24:37;7.90;;;5.65;;
21392;SDS011;10857;52.228;21.026;2022-07-06T03:27:06;6.03;;;5.45;;
21392;SDS011;10857;52.228;21.026;2022-07-06T03:29:34;6.15;;;5.55;;
21392;SDS011;10857;52.228;21.026;2022-07-06T03:32:02;5.90;;;5.10;;
21392;SDS011;10857;52.228;21.026;2022-07-06T03:34:30;6.38;;;5.10;;
21392;SDS011;10857;52.228;21.026;2022-07-06T03:36:58;6.97;;;4.97;;
21392;SDS011;10857;52.228;21.026;2022-07-06T03:39:25;6.75;;;5.63;;
21392;SDS011;10857;52.228;21.026;2022-07-06T03:41:55;6.43;;;5.07;;
21392;SDS011;10857;52.228;21.026;2022-07-06T03:44:23;6.53;;;4.60;;
21392;SDS011;10857;52.228;21.026;2022-07-06T03:46:50;5.97;;;4.97;;
21392;SDS011;10857;52.228;21.026;2022-07-06T03:49:19;7.10;;;5.30;;
21392;SDS011;10857;52.228;21.026;2022-07-06T03:51:48;6.65;;;4.95;;
21392;SDS011;10857;52.228;21.026;2022-07-06T03:54:14;6.22;;;5.10;;
21392;SDS011;10857;52.228;21.026;2022-07-06T03:56:41;6.00;;;4.72;;
21392;SDS011;10857;52.228;21.026;2022-07-06T03:59:13;8.25;;;4.85;;
21392;SDS011;10857;52.228;21.026;2022-07-06T04:01:41;5.88;;;5.00;;
21392;SDS011;10857;52.228;21.026;2022-07-06T04:04:11;6.88;;;4.88;;
21392;SDS011;10857;52.228;21.026;2022-07-06T04:06:42;6.57;;;4.68;;
21392;SDS011;10857;52.228;21.026;2022-07-06T04:09:09;6.53;;;4.72;;
21392;SDS011;10857;52.228;21.026;2022-07-06T04:11:40;5.47;;;4.70;;
21392;SDS011;10857;52.228;21.026;2022-07-06T04:14:07;7.97;;;4.85;;
21392;SDS011;10857;52.228;21.026;2022-07-06T04:16:34;5.97;;;4.50;;
21392;SDS011;10857;52.228;21.026;2022-07-06T04:19:02;5.50;;;4.10;;
21392;SDS011;10857;52.228;21.026;2022-07-06T04:21:29;5.95;;;4.57;;
21392;SDS011;10857;52.228;21.026;2022-07-06T04:23:57;5.28;;;4.78;;
21392;SDS011;10857;52.228;21.026;2022-07-06T04:26:26;4.95;;;4.45;;
21392;SDS011;10857;52.228;21.026;2022-07-06T04:28:55;4.90;;;4.20;;
21392;SDS011;10857;52.228;21.026;2022-07-06T04:31:24;5.65;;;4.50;;
21392;SDS011;10857;52.228;21.026;2022-07-06T04:33:51;4.80;;;4.00;;
21392;SDS011;10857;52.228;21.026;2022-07-06T04:36:18;5.72;;;4.43;;
21392;SDS011;10857;52.228;21.026;2022-07-06T04:38:46;6.65;;;4.68;;
21392;SDS011;10857;52.228;21.026;2022-07-06T04:41:15;5.50;;;4.45;;
21392;SDS011;10857;52.228;21.026;2022-07-06T04:43:42;6.63;;;4.57;;
21392;SDS011;10857;52.228;21.026;2022-07-06T04:46:15;7.38;;;4.95;;
21392;SDS011;10857;52.228;21.026;2022-07-06T04:48:44;5.82;;;4.82;;
21392;SDS011;10857;52.228;21.026;2022-07-06T04:51:17;5.70;;;4.53;;
